الصفحة الرئيسية
METAR-TAF:

METAR-TAF

مطار :

مطار كلوج نابوكا الدولي

كلوج-نابوكا, رومانيا

دائرة عرض: 46-47N, خط طول: 023-34E, ارتفاع: 315 متر

مراقبة الطقس الحالي

تاريخ ووقت الإصدار 40 دقيقة قبل الساعة 01:00UTC
ريح 6 عقدةمن اتجاهات متغيرة
درجة الحرارة 20°درجة مئوية
الرطوبة 88%
ضغط 1019 hPa
الرؤية 10 كم أو أكثر
غيوم قليلة على ارتفاع 3000 قدم
غيوم متفرقة على ارتفاع 4500 قدم, مزنة ركامية.
عاصفة رعدية, مطر خفيف,

METAR: LRCL 180100Z VRB06KT 9999 -TSRA FEW030 SCT045CB 20/18 Q1019

زمن: 04:40 (01:40 UTC)

توقعات

تاريخ ووقت الإصدار 2ساعات و 40 دقيقة قبل الساعة 23:00UTC
التوقعات صالحة من18 الساعة 00 UTC إلى 18 الساعة 09 UTC
ريح 8 عقدة من الشمال الغربي
الرؤية 10 كم أو أكثر
غيوم متفرقة على ارتفاع 4500 قدم
مؤقت
من 18 الساعة 00 UTC إلى 18 الساعة 03 UTC
ريح 15 عقدةمن اتجاهات متغيرة تتزايد حتى 25 عقدة
الرؤية: 5000 متر
غيوم مفككة على ارتفاع 35000 قدم, مزنة ركامية.
عاصفة رعدية, مطر,

TAF: LRCL 172300Z 1800/1809 32008KT 9999 SCT045 TEMPO 1800/1803 VRB15G25KT 5000 TSRA BKN350CB

أرصاد الطقس والتوقعات من أكثر من 4000 مطار (تقارير الطقس للمطار METAR والتنبؤ بالطقس بالمطارTAF).

المحطات المتاحة هي النقط الصفراء والحمراء على الخريطة.

حرك المؤشر فوق النقطة لمعرفة اسم المحطة.

ثم انقر لمعرفة أرصاد وتوقعات الطقس.

لتغيير الخارطة: اضغط على الأزرار الخضراء مع رمز الصليب الأسود للتكبير. على الزر الأخضر مع شرطة للتصغير، أو على الأسهم الخضراء للخرائط المجاورة.


METAR-TAF: